sensor_id;sensor_type;location;lat;lon;timestamp;temperature;humidity
20728;DHT22;10525;50.154;8.198;2022-10-17T00:02:15;14.10;99.90
20728;DHT22;10525;50.154;8.198;2022-10-17T00:04:42;14.20;99.90
20728;DHT22;10525;50.154;8.198;2022-10-17T00:07:08;14.30;99.90
20728;DHT22;10525;50.154;8.198;2022-10-17T00:09:35;14.30;99.90
20728;DHT22;10525;50.154;8.198;2022-10-17T00:12:03;14.30;99.90
20728;DHT22;10525;50.154;8.198;2022-10-17T00:14:30;14.30;99.90
20728;DHT22;10525;50.154;8.198;2022-10-17T00:16:57;14.30;99.90
20728;DHT22;10525;50.154;8.198;2022-10-17T00:19:24;14.40;99.90
20728;DHT22;10525;50.154;8.198;2022-10-17T00:21:50;14.40;99.90
20728;DHT22;10525;50.154;8.198;2022-10-17T00:24:17;14.40;99.90
20728;DHT22;10525;50.154;8.198;2022-10-17T00:26:44;14.40;99.90
20728;DHT22;10525;50.154;8.198;2022-10-17T00:29:12;14.40;99.90
20728;DHT22;10525;50.154;8.198;2022-10-17T00:31:38;14.40;99.90
20728;DHT22;10525;50.154;8.198;2022-10-17T00:34:05;14.40;99.90
20728;DHT22;10525;50.154;8.198;2022-10-17T00:36:32;14.40;99.90
20728;DHT22;10525;50.154;8.198;2022-10-17T00:38:59;14.40;99.90
20728;DHT22;10525;50.154;8.198;2022-10-17T00:41:28;14.40;99.90
20728;DHT22;10525;50.154;8.198;2022-10-17T00:43:57;14.40;99.90
20728;DHT22;10525;50.154;8.198;2022-10-17T00:46:28;14.30;99.90
20728;DHT22;10525;50.154;8.198;2022-10-17T00:48:56;14.20;99.90
20728;DHT22;10525;50.154;8.198;2022-10-17T00:51:27;14.20;99.90
20728;DHT22;10525;50.154;8.198;2022-10-17T00:53:56;14.10;99.90
20728;DHT22;10525;50.154;8.198;2022-10-17T00:56:23;14.00;99.90
20728;DHT22;10525;50.154;8.198;2022-10-17T00:58:50;14.00;99.90
20728;DHT22;10525;50.154;8.198;2022-10-17T01:01:17;13.90;99.90
20728;DHT22;10525;50.154;8.198;2022-10-17T01:03:45;13.80;99.90
20728;DHT22;10525;50.154;8.198;2022-10-17T01:06:12;13.80;99.90
20728;DHT22;10525;50.154;8.198;2022-10-17T01:08:38;13.70;99.90
20728;DHT22;10525;50.154;8.198;2022-10-17T01:11:16;13.80;99.90
20728;DHT22;10525;50.154;8.198;2022-10-17T01:13:47;13.90;99.90
20728;DHT22;10525;50.154;8.198;2022-10-17T01:16:19;13.90;99.90
20728;DHT22;10525;50.154;8.198;2022-10-17T01:18:59;13.90;99.90
20728;DHT22;10525;50.154;8.198;2022-10-17T01:21:45;13.80;99.90
20728;DHT22;10525;50.154;8.198;2022-10-17T01:24:48;13.80;99.90
20728;DHT22;10525;50.154;8.198;2022-10-17T01:27:28;13.80;99.90
20728;DHT22;10525;50.154;8.198;2022-10-17T01:30:31;13.80;99.90
20728;DHT22;10525;50.154;8.198;2022-10-17T01:33:06;13.80;99.90
20728;DHT22;10525;50.154;8.198;2022-10-17T01:35:38;13.90;99.90
20728;DHT22;10525;50.154;8.198;2022-10-17T01:38:10;14.00;99.90
20728;DHT22;10525;50.154;8.198;2022-10-17T01:40:43;13.90;99.90
20728;DHT22;10525;50.154;8.198;2022-10-17T01:43:15;13.90;99.90
20728;DHT22;10525;50.154;8.198;2022-10-17T01:45:47;13.90;99.90
20728;DHT22;10525;50.154;8.198;2022-10-17T01:48:19;13.90;99.90
20728;DHT22;10525;50.154;8.198;2022-10-17T01:50:50;13.90;99.90
20728;DHT22;10525;50.154;8.198;2022-10-17T01:53:20;13.90;99.90
20728;DHT22;10525;50.154;8.198;2022-10-17T01:55:49;14.00;99.90
20728;DHT22;10525;50.154;8.198;2022-10-17T01:58:21;14.00;99.90
20728;DHT22;10525;50.154;8.198;2022-10-17T02:00:49;13.90;99.90
20728;DHT22;10525;50.154;8.198;2022-10-17T02:03:20;14.00;99.90
20728;DHT22;10525;50.154;8.198;2022-10-17T02:05:47;14.00;99.90
20728;DHT22;10525;50.154;8.198;2022-10-17T02:08:24;13.90;99.90
20728;DHT22;10525;50.154;8.198;2022-10-17T02:10:55;13.90;99.90
20728;DHT22;10525;50.154;8.198;2022-10-17T02:13:32;13.90;99.90
20728;DHT22;10525;50.154;8.198;2022-10-17T02:16:11;13.90;99.90
20728;DHT22;10525;50.154;8.198;2022-10-17T02:18:57;13.80;99.90
20728;DHT22;10525;50.154;8.198;2022-10-17T02:21:32;13.60;99.90
20728;DHT22;10525;50.154;8.198;2022-10-17T02:24:08;13.50;99.90
20728;DHT22;10525;50.154;8.198;2022-10-17T02:26:44;13.60;99.90
20728;DHT22;10525;50.154;8.198;2022-10-17T02:29:16;13.50;99.90
20728;DHT22;10525;50.154;8.198;2022-10-17T02:31:47;13.40;99.90
20728;DHT22;10525;50.154;8.198;2022-10-17T02:34:18;13.40;99.90
20728;DHT22;10525;50.154;8.198;2022-10-17T02:36:50;13.30;99.90
20728;DHT22;10525;50.154;8.198;2022-10-17T02:39:19;13.40;99.90
20728;DHT22;10525;50.154;8.198;2022-10-17T02:41:47;13.40;99.90
20728;DHT22;10525;50.154;8.198;2022-10-17T02:44:15;13.40;99.90
20728;DHT22;10525;50.154;8.198;2022-10-17T02:46:44;13.40;99.90
20728;DHT22;10525;50.154;8.198;2022-10-17T02:49:18;13.40;99.90
20728;DHT22;10525;50.154;8.198;2022-10-17T02:51:51;13.40;99.90
20728;DHT22;10525;50.154;8.198;2022-10-17T02:54:26;13.30;99.90
20728;DHT22;10525;50.154;8.198;2022-10-17T02:56:59;13.30;99.90
20728;DHT22;10525;50.154;8.198;2022-10-17T02:59:28;13.20;99.90
20728;DHT22;10525;50.154;8.198;2022-10-17T03:01:56;13.20;99.90
20728;DHT22;10525;50.154;8.198;2022-10-17T03:04:24;13.20;99.90
20728;DHT22;10525;50.154;8.198;2022-10-17T03:06:50;13.20;99.90
20728;DHT22;10525;50.154;8.198;2022-10-17T03:09:17;13.20;99.90
20728;DHT22;10525;50.154;8.198;2022-10-17T03:11:44;13.40;99.90
20728;DHT22;10525;50.154;8.198;2022-10-17T03:14:11;13.40;99.90
20728;DHT22;10525;50.154;8.198;2022-10-17T03:16:37;13.50;99.90
20728;DHT22;10525;50.154;8.198;2022-10-17T03:19:04;13.50;99.90
20728;DHT22;10525;50.154;8.198;2022-10-17T03:21:33;13.60;99.90
20728;DHT22;10525;50.154;8.198;2022-10-17T03:24:02;13.50;99.90
20728;DHT22;10525;50.154;8.198;2022-10-17T03:26:29;13.50;99.90
20728;DHT22;10525;50.154;8.198;2022-10-17T03:28:55;13.30;99.90
20728;DHT22;10525;50.154;8.198;2022-10-17T03:31:22;13.40;99.90
20728;DHT22;10525;50.154;8.198;2022-10-17T03:33:49;13.40;99.90
20728;DHT22;10525;50.154;8.198;2022-10-17T03:36:17;13.60;99.90
20728;DHT22;10525;50.154;8.198;2022-10-17T03:38:46;13.60;99.90
20728;DHT22;10525;50.154;8.198;2022-10-17T03:41:13;13.80;99.90
20728;DHT22;10525;50.154;8.198;2022-10-17T03:43:39;13.90;99.90
20728;DHT22;10525;50.154;8.198;2022-10-17T03:46:06;14.00;99.90
20728;DHT22;10525;50.154;8.198;2022-10-17T03:48:33;14.00;99.90
20728;DHT22;10525;50.154;8.198;2022-10-17T03:51:01;14.00;99.90
20728;DHT22;10525;50.154;8.198;2022-10-17T03:53:29;13.90;99.90
20728;DHT22;10525;50.154;8.198;2022-10-17T03:56:07;13.90;99.90
20728;DHT22;10525;50.154;8.198;2022-10-17T03:58:33;13.90;99.90
20728;DHT22;10525;50.154;8.198;2022-10-17T04:01:03;13.80;99.90
20728;DHT22;10525;50.154;8.198;2022-10-17T04:03:29;13.80;99.90
20728;DHT22;10525;50.154;8.198;2022-10-17T04:05:57;13.80;99.90
20728;DHT22;10525;50.154;8.198;2022-10-17T04:08:24;13.80;99.90
20728;DHT22;10525;50.154;8.198;2022-10-17T04:10:51;13.80;99.90
20728;DHT22;10525;50.154;8.198;2022-10-17T04:13:19;13.80;99.90
20728;DHT22;10525;50.154;8.198;2022-10-17T04:15:53;13.90;99.90
20728;DHT22;10525;50.154;8.198;2022-10-17T04:18:20;13.90;99.90
20728;DHT22;10525;50.154;8.198;2022-10-17T04:20:47;13.90;99.90
20728;DHT22;10525;50.154;8.198;2022-10-17T04:23:13;14.00;99.90
20728;DHT22;10525;50.154;8.198;2022-10-17T04:25:40;14.10;99.90
20728;DHT22;10525;50.154;8.198;2022-10-17T04:28:07;14.20;99.90
20728;DHT22;10525;50.154;8.198;2022-10-17T04:30:35;14.20;99.90
20728;DHT22;10525;50.154;8.198;2022-10-17T04:33:02;14.30;99.90
20728;DHT22;10525;50.154;8.198;2022-10-17T04:35:29;14.30;99.90
20728;DHT22;10525;50.154;8.198;2022-10-17T04:37:55;14.30;99.90
20728;DHT22;10525;50.154;8.198;2022-10-17T04:40:22;14.40;99.90
20728;DHT22;10525;50.154;8.198;2022-10-17T04:42:49;14.40;99.90
20728;DHT22;10525;50.154;8.198;2022-10-17T04:45:16;14.30;99.90
20728;DHT22;10525;50.154;8.198;2022-10-17T04:47:44;14.40;99.90
20728;DHT22;10525;50.154;8.198;2022-10-17T04:50:11;14.40;99.90
20728;DHT22;10525;50.154;8.198;2022-10-17T04:52:38;14.40;99.90
20728;DHT22;10525;50.154;8.198;2022-10-17T04:55:06;14.60;99.90
20728;DHT22;10525;50.154;8.198;2022-10-17T04:57:33;14.70;99.90
20728;DHT22;10525;50.154;8.198;2022-10-17T05:00:01;14.60;99.90
20728;DHT22;10525;50.154;8.198;2022-10-17T05:02:27;14.50;99.90
20728;DHT22;10525;50.154;8.198;2022-10-17T05:04:56;14.50;99.90
20728;DHT22;10525;50.154;8.198;2022-10-17T05:07:22;14.50;99.90
20728;DHT22;10525;50.154;8.198;2022-10-17T05:09:49;14.40;99.90
20728;DHT22;10525;50.154;8.198;2022-10-17T05:12:16;14.40;99.90
20728;DHT22;10525;50.154;8.198;2022-10-17T05:14:42;14.30;99.90
20728;DHT22;10525;50.154;8.198;2022-10-17T05:17:09;14.30;99.90
20728;DHT22;10525;50.154;8.198;2022-10-17T05:19:36;14.20;99.90
20728;DHT22;10525;50.154;8.198;2022-10-17T05:22:04;14.20;99.90
20728;DHT22;10525;50.154;8.198;2022-10-17T05:24:30;14.20;99.90
20728;DHT22;10525;50.154;8.198;2022-10-17T05:26:57;14.20;99.90
20728;DHT22;10525;50.154;8.198;2022-10-17T05:29:24;14.10;99.90
20728;DHT22;10525;50.154;8.198;2022-10-17T05:31:50;14.20;99.90
20728;DHT22;10525;50.154;8.198;2022-10-17T05:34:17;14.20;99.90
20728;DHT22;10525;50.154;8.198;2022-10-17T05:36:44;14.20;99.90
20728;DHT22;10525;50.154;8.198;2022-10-17T05:39:12;14.10;99.90
20728;DHT22;10525;50.154;8.198;2022-10-17T05:41:43;14.00;99.90
20728;DHT22;10525;50.154;8.198;2022-10-17T05:44:10;14.00;99.90
20728;DHT22;10525;50.154;8.198;2022-10-17T05:46:37;13.90;99.90
20728;DHT22;10525;50.154;8.198;2022-10-17T05:49:04;14.00;99.90
20728;DHT22;10525;50.154;8.198;2022-10-17T05:51:32;13.90;99.90
20728;DHT22;10525;50.154;8.198;2022-10-17T05:53:59;13.90;99.90
20728;DHT22;10525;50.154;8.198;2022-10-17T05:56:27;13.80;99.90
20728;DHT22;10525;50.154;8.198;2022-10-17T05:58:54;13.80;99.90
20728;DHT22;10525;50.154;8.198;2022-10-17T06:01:20;13.80;99.90
20728;DHT22;10525;50.154;8.198;2022-10-17T06:03:47;13.80;99.90
20728;DHT22;10525;50.154;8.198;2022-10-17T06:06:14;13.90;99.90
20728;DHT22;10525;50.154;8.198;2022-10-17T06:08:41;13.90;99.90
20728;DHT22;10525;50.154;8.198;2022-10-17T06:11:09;14.00;99.90
20728;DHT22;10525;50.154;8.198;2022-10-17T06:13:37;14.00;99.90
20728;DHT22;10525;50.154;8.198;2022-10-17T06:16:04;13.90;99.90
20728;DHT22;10525;50.154;8.198;2022-10-17T06:18:31;14.00;99.90
20728;DHT22;10525;50.154;8.198;2022-10-17T06:21:01;14.00;99.90
20728;DHT22;10525;50.154;8.198;2022-10-17T06:23:28;14.00;99.90
20728;DHT22;10525;50.154;8.198;2022-10-17T06:25:57;14.00;99.90
20728;DHT22;10525;50.154;8.198;2022-10-17T06:28:24;14.10;99.90
20728;DHT22;10525;50.154;8.198;2022-10-17T06:30:52;14.10;99.90
20728;DHT22;10525;50.154;8.198;2022-10-17T06:33:19;14.10;99.90
20728;DHT22;10525;50.154;8.198;2022-10-17T06:35:50;14.20;99.90
20728;DHT22;10525;50.154;8.198;2022-10-17T06:38:17;14.20;99.90
20728;DHT22;10525;50.154;8.198;2022-10-17T06:40:43;14.20;99.90
20728;DHT22;10525;50.154;8.198;2022-10-17T06:43:10;14.20;99.90
20728;DHT22;10525;50.154;8.198;2022-10-17T06:45:37;14.20;99.90
20728;DHT22;10525;50.154;8.198;2022-10-17T06:48:06;14.20;99.90
20728;DHT22;10525;50.154;8.198;2022-10-17T06:50:33;14.30;99.90
20728;DHT22;10525;50.154;8.198;2022-10-17T06:53:00;14.30;99.90
20728;DHT22;10525;50.154;8.198;2022-10-17T06:55:27;14.30;99.90
20728;DHT22;10525;50.154;8.198;2022-10-17T06:57:54;14.40;99.90
20728;DHT22;10525;50.154;8.198;2022-10-17T07:00:20;14.40;99.90
20728;DHT22;10525;50.154;8.198;2022-10-17T07:02:48;14.40;99.90
20728;DHT22;10525;50.154;8.198;2022-10-17T07:05:16;14.50;99.90
20728;DHT22;10525;50.154;8.198;2022-10-17T07:07:43;14.50;99.90
20728;DHT22;10525;50.154;8.198;2022-10-17T07:10:10;14.60;99.90
20728;DHT22;10525;50.154;8.198;2022-10-17T07:12:37;14.60;99.90
20728;DHT22;10525;50.154;8.198;2022-10-17T07:15:04;14.70;99.90
20728;DHT22;10525;50.154;8.198;2022-10-17T07:17:31;14.70;99.90
20728;DHT22;10525;50.154;8.198;2022-10-17T07:19:58;14.80;99.90
20728;DHT22;10525;50.154;8.198;2022-10-17T07:22:26;14.80;99.90
20728;DHT22;10525;50.154;8.198;2022-10-17T07:24:53;14.80;99.90
20728;DHT22;10525;50.154;8.198;2022-10-17T07:27:19;14.90;99.90
20728;DHT22;10525;50.154;8.198;2022-10-17T07:29:46;15.00;99.90
20728;DHT22;10525;50.154;8.198;2022-10-17T07:32:13;15.00;99.90
20728;DHT22;10525;50.154;8.198;2022-10-17T07:34:39;15.10;99.90
20728;DHT22;10525;50.154;8.198;2022-10-17T07:37:06;15.30;99.90
20728;DHT22;10525;50.154;8.198;2022-10-17T07:39:35;15.40;99.90
20728;DHT22;10525;50.154;8.198;2022-10-17T07:42:04;15.60;99.90
20728;DHT22;10525;50.154;8.198;2022-10-17T07:44:32;15.70;99.90
20728;DHT22;10525;50.154;8.198;2022-10-17T07:46:59;15.80;99.90
20728;DHT22;10525;50.154;8.198;2022-10-17T07:49:26;15.90;99.90
20728;DHT22;10525;50.154;8.198;2022-10-17T07:51:53;16.00;99.90
20728;DHT22;10525;50.154;8.198;2022-10-17T07:54:20;16.00;99.90
20728;DHT22;10525;50.154;8.198;2022-10-17T07:56:48;16.10;99.90
20728;DHT22;10525;50.154;8.198;2022-10-17T07:59:15;16.10;99.90
20728;DHT22;10525;50.154;8.198;2022-10-17T08:01:42;16.10;99.90
20728;DHT22;10525;50.154;8.198;2022-10-17T08:04:09;16.00;99.90
20728;DHT22;10525;50.154;8.198;2022-10-17T08:06:36;15.90;99.90
20728;DHT22;10525;50.154;8.198;2022-10-17T08:09:02;16.00;99.90
20728;DHT22;10525;50.154;8.198;2022-10-17T08:11:29;15.90;99.90
20728;DHT22;10525;50.154;8.198;2022-10-17T08:13:58;15.90;99.90
20728;DHT22;10525;50.154;8.198;2022-10-17T08:16:24;16.00;99.90
20728;DHT22;10525;50.154;8.198;2022-10-17T08:18:51;16.00;99.90
20728;DHT22;10525;50.154;8.198;2022-10-17T08:21:18;16.00;99.90
20728;DHT22;10525;50.154;8.198;2022-10-17T08:23:45;16.00;99.90
20728;DHT22;10525;50.154;8.198;2022-10-17T08:26:12;16.00;99.90
20728;DHT22;10525;50.154;8.198;2022-10-17T08:28:41;16.10;99.90
20728;DHT22;10525;50.154;8.198;2022-10-17T08:31:11;16.10;99.90
20728;DHT22;10525;50.154;8.198;2022-10-17T08:33:39;16.20;99.90
20728;DHT22;10525;50.154;8.198;2022-10-17T08:36:05;16.40;99.90
20728;DHT22;10525;50.154;8.198;2022-10-17T08:38:33;16.40;99.90
20728;DHT22;10525;50.154;8.198;2022-10-17T08:41:09;16.50;99.90
20728;DHT22;10525;50.154;8.198;2022-10-17T08:43:49;16.60;99.90
20728;DHT22;10525;50.154;8.198;2022-10-17T08:46:18;16.60;99.90
20728;DHT22;10525;50.154;8.198;2022-10-17T08:48:47;16.70;99.90
20728;DHT22;10525;50.154;8.198;2022-10-17T08:51:17;16.80;99.90
20728;DHT22;10525;50.154;8.198;2022-10-17T08:53:48;16.90;99.90
20728;DHT22;10525;50.154;8.198;2022-10-17T08:56:18;16.90;99.90
20728;DHT22;10525;50.154;8.198;2022-10-17T08:58:46;17.00;99.90
20728;DHT22;10525;50.154;8.198;2022-10-17T09:01:27;17.10;99.90
20728;DHT22;10525;50.154;8.198;2022-10-17T09:04:18;17.10;99.90
20728;DHT22;10525;50.154;8.198;2022-10-17T09:06:52;17.20;99.90
20728;DHT22;10525;50.154;8.198;2022-10-17T09:09:34;17.30;99.90
20728;DHT22;10525;50.154;8.198;2022-10-17T09:12:13;17.30;99.90
20728;DHT22;10525;50.154;8.198;2022-10-17T09:15:02;17.40;99.90
20728;DHT22;10525;50.154;8.198;2022-10-17T09:17:40;17.50;99.90
20728;DHT22;10525;50.154;8.198;2022-10-17T09:20:13;17.60;99.90
20728;DHT22;10525;50.154;8.198;2022-10-17T09:22:44;17.70;99.90
20728;DHT22;10525;50.154;8.198;2022-10-17T09:25:15;17.90;99.90
20728;DHT22;10525;50.154;8.198;2022-10-17T09:27:45;17.90;99.90
20728;DHT22;10525;50.154;8.198;2022-10-17T09:30:24;18.10;99.90
20728;DHT22;10525;50.154;8.198;2022-10-17T09:32:53;18.10;99.90
20728;DHT22;10525;50.154;8.198;2022-10-17T09:35:21;18.20;99.90
20728;DHT22;10525;50.154;8.198;2022-10-17T09:37:49;18.30;99.90
20728;DHT22;10525;50.154;8.198;2022-10-17T09:40:20;18.40;99.90
20728;DHT22;10525;50.154;8.198;2022-10-17T09:42:49;18.30;99.90
20728;DHT22;10525;50.154;8.198;2022-10-17T09:45:18;18.30;99.90
20728;DHT22;10525;50.154;8.198;2022-10-17T09:47:56;18.40;99.90
20728;DHT22;10525;50.154;8.198;2022-10-17T09:50:29;18.40;99.90
20728;DHT22;10525;50.154;8.198;2022-10-17T09:52:59;18.30;99.90
20728;DHT22;10525;50.154;8.198;2022-10-17T09:55:33;18.40;99.90
20728;DHT22;10525;50.154;8.198;2022-10-17T09:58:04;18.40;99.90
20728;DHT22;10525;50.154;8.198;2022-10-17T10:00:33;18.40;99.90
20728;DHT22;10525;50.154;8.198;2022-10-17T10:03:10;18.60;99.90
20728;DHT22;10525;50.154;8.198;2022-10-17T10:05:38;18.60;99.90
20728;DHT22;10525;50.154;8.198;2022-10-17T10:08:13;18.60;99.90
20728;DHT22;10525;50.154;8.198;2022-10-17T10:10:40;18.80;99.90
20728;DHT22;10525;50.154;8.198;2022-10-17T10:13:17;19.00;99.90
20728;DHT22;10525;50.154;8.198;2022-10-17T10:15:46;19.10;99.90
20728;DHT22;10525;50.154;8.198;2022-10-17T10:18:29;19.10;99.90
20728;DHT22;10525;50.154;8.198;2022-10-17T10:21:05;19.10;99.90
20728;DHT22;10525;50.154;8.198;2022-10-17T10:23:32;19.10;99.90
20728;DHT22;10525;50.154;8.198;2022-10-17T10:26:02;19.10;99.90
20728;DHT22;10525;50.154;8.198;2022-10-17T10:28:30;19.10;99.90
20728;DHT22;10525;50.154;8.198;2022-10-17T10:31:00;19.10;99.90
20728;DHT22;10525;50.154;8.198;2022-10-17T10:33:32;19.10;99.90
20728;DHT22;10525;50.154;8.198;2022-10-17T10:36:00;19.10;99.90
20728;DHT22;10525;50.154;8.198;2022-10-17T10:38:28;19.00;99.90
20728;DHT22;10525;50.154;8.198;2022-10-17T10:41:00;19.20;99.90
20728;DHT22;10525;50.154;8.198;2022-10-17T10:43:32;19.20;99.90
20728;DHT22;10525;50.154;8.198;2022-10-17T10:46:00;19.40;99.90
20728;DHT22;10525;50.154;8.198;2022-10-17T10:48:32;19.40;99.90
20728;DHT22;10525;50.154;8.198;2022-10-17T10:51:03;19.40;99.90
20728;DHT22;10525;50.154;8.198;2022-10-17T10:53:42;19.50;99.90
20728;DHT22;10525;50.154;8.198;2022-10-17T10:56:13;19.60;99.90
20728;DHT22;10525;50.154;8.198;2022-10-17T10:58:49;19.70;99.90
20728;DHT22;10525;50.154;8.198;2022-10-17T11:01:22;19.60;99.90
20728;DHT22;10525;50.154;8.198;2022-10-17T11:04:06;19.70;99.90
20728;DHT22;10525;50.154;8.198;2022-10-17T11:06:44;19.70;99.90
20728;DHT22;10525;50.154;8.198;2022-10-17T11:09:21;19.80;99.90
20728;DHT22;10525;50.154;8.198;2022-10-17T11:11:53;19.80;99.90
20728;DHT22;10525;50.154;8.198;2022-10-17T11:14:31;19.80;99.90
20728;DHT22;10525;50.154;8.198;2022-10-17T11:17:07;19.80;99.90
20728;DHT22;10525;50.154;8.198;2022-10-17T11:19:39;19.80;99.90
20728;DHT22;10525;50.154;8.198;2022-10-17T11:22:14;19.80;99.90
20728;DHT22;10525;50.154;8.198;2022-10-17T11:24:45;19.70;99.90
20728;DHT22;10525;50.154;8.198;2022-10-17T11:27:14;19.70;99.90
20728;DHT22;10525;50.154;8.198;2022-10-17T11:29:41;19.80;99.90
20728;DHT22;10525;50.154;8.198;2022-10-17T11:32:14;19.80;99.90
20728;DHT22;10525;50.154;8.198;2022-10-17T11:34:46;19.80;99.90
20728;DHT22;10525;50.154;8.198;2022-10-17T11:37:19;19.90;99.90
20728;DHT22;10525;50.154;8.198;2022-10-17T11:39:50;19.90;99.90
20728;DHT22;10525;50.154;8.198;2022-10-17T11:42:22;19.90;99.90
20728;DHT22;10525;50.154;8.198;2022-10-17T11:44:52;20.10;99.90
20728;DHT22;10525;50.154;8.198;2022-10-17T11:47:28;20.20;99.90
20728;DHT22;10525;50.154;8.198;2022-10-17T11:50:00;20.20;99.90
20728;DHT22;10525;50.154;8.198;2022-10-17T11:52:36;20.20;99.90
20728;DHT22;10525;50.154;8.198;2022-10-17T11:55:10;20.40;99.90
20728;DHT22;10525;50.154;8.198;2022-10-17T11:57:50;20.50;99.90
20728;DHT22;10525;50.154;8.198;2022-10-17T12:00:24;20.70;99.90
20728;DHT22;10525;50.154;8.198;2022-10-17T12:03:06;20.80;99.90
20728;DHT22;10525;50.154;8.198;2022-10-17T12:05:43;20.80;99.90
20728;DHT22;10525;50.154;8.198;2022-10-17T12:08:19;20.80;99.90
20728;DHT22;10525;50.154;8.198;2022-10-17T12:10:53;20.60;99.90
20728;DHT22;10525;50.154;8.198;2022-10-17T12:13:46;20.70;99.90
20728;DHT22;10525;50.154;8.198;2022-10-17T12:16:46;20.70;99.90
20728;DHT22;10525;50.154;8.198;2022-10-17T12:19:31;20.70;99.90
20728;DHT22;10525;50.154;8.198;2022-10-17T12:22:02;20.80;99.90
20728;DHT22;10525;50.154;8.198;2022-10-17T12:24:38;20.80;99.90
20728;DHT22;10525;50.154;8.198;2022-10-17T12:27:37;20.80;99.90
20728;DHT22;10525;50.154;8.198;2022-10-17T12:30:13;20.70;99.90
20728;DHT22;10525;50.154;8.198;2022-10-17T12:33:03;20.80;99.90
20728;DHT22;10525;50.154;8.198;2022-10-17T12:35:32;20.70;99.90
20728;DHT22;10525;50.154;8.198;2022-10-17T12:38:26;20.70;99.90
20728;DHT22;10525;50.154;8.198;2022-10-17T12:41:03;20.70;99.90
20728;DHT22;10525;50.154;8.198;2022-10-17T12:43:47;20.70;99.90
20728;DHT22;10525;50.154;8.198;2022-10-17T12:46:45;20.90;99.90
20728;DHT22;10525;50.154;8.198;2022-10-17T12:49:37;20.80;99.90
20728;DHT22;10525;50.154;8.198;2022-10-17T12:52:20;21.00;99.90
20728;DHT22;10525;50.154;8.198;2022-10-17T12:54:55;20.90;99.90
20728;DHT22;10525;50.154;8.198;2022-10-17T12:57:29;20.90;99.90
20728;DHT22;10525;50.154;8.198;2022-10-17T12:59:56;20.80;99.90
20728;DHT22;10525;50.154;8.198;2022-10-17T13:02:26;20.70;99.90
20728;DHT22;10525;50.154;8.198;2022-10-17T13:04:58;20.70;99.90
20728;DHT22;10525;50.154;8.198;2022-10-17T13:07:28;20.70;99.90
20728;DHT22;10525;50.154;8.198;2022-10-17T13:09:55;20.80;99.90
20728;DHT22;10525;50.154;8.198;2022-10-17T13:12:25;20.90;99.90
20728;DHT22;10525;50.154;8.198;2022-10-17T13:14:53;21.00;99.90
20728;DHT22;10525;50.154;8.198;2022-10-17T13:17:23;21.10;99.90
20728;DHT22;10525;50.154;8.198;2022-10-17T13:19:50;21.20;99.90
20728;DHT22;10525;50.154;8.198;2022-10-17T13:22:19;21.30;99.90
20728;DHT22;10525;50.154;8.198;2022-10-17T13:24:48;21.40;99.90
20728;DHT22;10525;50.154;8.198;2022-10-17T13:27:25;21.30;99.90
20728;DHT22;10525;50.154;8.198;2022-10-17T13:29:53;21.10;99.90
20728;DHT22;10525;50.154;8.198;2022-10-17T13:32:22;21.10;99.90
20728;DHT22;10525;50.154;8.198;2022-10-17T13:35:05;21.10;99.90
20728;DHT22;10525;50.154;8.198;2022-10-17T13:37:33;21.00;99.90
20728;DHT22;10525;50.154;8.198;2022-10-17T13:40:01;21.10;99.90
20728;DHT22;10525;50.154;8.198;2022-10-17T13:42:36;21.00;99.90
20728;DHT22;10525;50.154;8.198;2022-10-17T13:45:12;21.10;99.90
20728;DHT22;10525;50.154;8.198;2022-10-17T13:47:42;21.00;99.90
20728;DHT22;10525;50.154;8.198;2022-10-17T13:50:19;21.00;99.90
20728;DHT22;10525;50.154;8.198;2022-10-17T13:52:48;21.00;99.90
20728;DHT22;10525;50.154;8.198;2022-10-17T13:55:16;21.00;99.90
20728;DHT22;10525;50.154;8.198;2022-10-17T13:57:45;21.00;99.90
20728;DHT22;10525;50.154;8.198;2022-10-17T14:00:17;21.10;99.90
20728;DHT22;10525;50.154;8.198;2022-10-17T14:02:45;21.10;99.90
20728;DHT22;10525;50.154;8.198;2022-10-17T14:05:15;20.90;99.90
20728;DHT22;10525;50.154;8.198;2022-10-17T14:07:45;20.90;99.90
20728;DHT22;10525;50.154;8.198;2022-10-17T14:10:20;20.80;99.90
20728;DHT22;10525;50.154;8.198;2022-10-17T14:12:49;20.70;99.90
20728;DHT22;10525;50.154;8.198;2022-10-17T14:15:16;20.70;99.90
20728;DHT22;10525;50.154;8.198;2022-10-17T14:17:44;20.50;99.90
20728;DHT22;10525;50.154;8.198;2022-10-17T14:20:17;20.40;99.90
20728;DHT22;10525;50.154;8.198;2022-10-17T14:22:44;20.40;99.90
20728;DHT22;10525;50.154;8.198;2022-10-17T14:25:27;20.30;99.90
20728;DHT22;10525;50.154;8.198;2022-10-17T14:28:00;20.20;99.90
20728;DHT22;10525;50.154;8.198;2022-10-17T14:30:33;20.40;99.90
20728;DHT22;10525;50.154;8.198;2022-10-17T14:33:02;20.40;99.90
20728;DHT22;10525;50.154;8.198;2022-10-17T14:35:29;20.50;99.90
20728;DHT22;10525;50.154;8.198;2022-10-17T14:37:58;20.70;99.90
20728;DHT22;10525;50.154;8.198;2022-10-17T14:40:27;20.80;99.90
20728;DHT22;10525;50.154;8.198;2022-10-17T14:42:57;21.00;99.90
20728;DHT22;10525;50.154;8.198;2022-10-17T14:45:26;21.00;99.90
20728;DHT22;10525;50.154;8.198;2022-10-17T14:47:55;21.10;99.90
20728;DHT22;10525;50.154;8.198;2022-10-17T14:50:25;21.20;99.90
20728;DHT22;10525;50.154;8.198;2022-10-17T14:52:59;21.00;99.90
20728;DHT22;10525;50.154;8.198;2022-10-17T14:55:27;20.90;99.90
20728;DHT22;10525;50.154;8.198;2022-10-17T14:57:56;20.90;99.90
20728;DHT22;10525;50.154;8.198;2022-10-17T15:00:24;20.80;99.90
20728;DHT22;10525;50.154;8.198;2022-10-17T15:02:52;20.80;99.90
20728;DHT22;10525;50.154;8.198;2022-10-17T15:05:19;20.60;99.90
20728;DHT22;10525;50.154;8.198;2022-10-17T15:07:48;20.50;99.90
20728;DHT22;10525;50.154;8.198;2022-10-17T15:10:24;20.40;99.90
20728;DHT22;10525;50.154;8.198;2022-10-17T15:12:51;20.50;99.90
20728;DHT22;10525;50.154;8.198;2022-10-17T15:15:19;20.40;99.90
20728;DHT22;10525;50.154;8.198;2022-10-17T15:17:45;20.40;99.90
20728;DHT22;10525;50.154;8.198;2022-10-17T15:20:14;20.30;99.90
20728;DHT22;10525;50.154;8.198;2022-10-17T15:22:42;20.20;99.90
20728;DHT22;10525;50.154;8.198;2022-10-17T15:25:09;20.10;99.90
20728;DHT22;10525;50.154;8.198;2022-10-17T15:27:35;20.00;99.90
20728;DHT22;10525;50.154;8.198;2022-10-17T15:30:03;20.00;99.90
20728;DHT22;10525;50.154;8.198;2022-10-17T15:32:31;19.90;99.90
20728;DHT22;10525;50.154;8.198;2022-10-17T15:34:57;19.90;99.90
20728;DHT22;10525;50.154;8.198;2022-10-17T15:37:24;19.80;99.90
20728;DHT22;10525;50.154;8.198;2022-10-17T15:39:54;19.60;99.90
20728;DHT22;10525;50.154;8.198;2022-10-17T15:42:21;19.40;99.90
20728;DHT22;10525;50.154;8.198;2022-10-17T15:44:48;19.20;99.90
20728;DHT22;10525;50.154;8.198;2022-10-17T15:47:23;19.10;99.90
20728;DHT22;10525;50.154;8.198;2022-10-17T15:49:52;18.90;99.90
20728;DHT22;10525;50.154;8.198;2022-10-17T15:52:19;18.80;99.90